sensor_id;sensor_type;location;lat;lon;timestamp;temperature;humidity
23231;DHT22;11784;49.818;8.632;2022-12-04T00:01:58;8.70;72.90
23231;DHT22;11784;49.818;8.632;2022-12-04T00:04:23;8.70;72.90
23231;DHT22;11784;49.818;8.632;2022-12-04T00:06:49;8.70;72.30
23231;DHT22;11784;49.818;8.632;2022-12-04T00:09:14;8.70;72.30
23231;DHT22;11784;49.818;8.632;2022-12-04T00:11:40;8.70;72.60
23231;DHT22;11784;49.818;8.632;2022-12-04T00:14:05;8.70;72.50
23231;DHT22;11784;49.818;8.632;2022-12-04T00:16:31;8.70;72.10
23231;DHT22;11784;49.818;8.632;2022-12-04T00:18:57;8.70;71.90
23231;DHT22;11784;49.818;8.632;2022-12-04T00:21:23;8.60;72.90
23231;DHT22;11784;49.818;8.632;2022-12-04T00:23:50;8.70;72.80
23231;DHT22;11784;49.818;8.632;2022-12-04T00:26:21;8.60;72.00
23231;DHT22;11784;49.818;8.632;2022-12-04T00:28:47;8.60;72.30
23231;DHT22;11784;49.818;8.632;2022-12-04T00:31:19;8.60;71.90
23231;DHT22;11784;49.818;8.632;2022-12-04T00:33:45;8.60;71.90
23231;DHT22;11784;49.818;8.632;2022-12-04T00:36:12;8.50;72.30
23231;DHT22;11784;49.818;8.632;2022-12-04T00:38:39;8.50;72.60
23231;DHT22;11784;49.818;8.632;2022-12-04T00:41:07;8.50;72.60
23231;DHT22;11784;49.818;8.632;2022-12-04T00:43:33;8.50;72.60
23231;DHT22;11784;49.818;8.632;2022-12-04T00:45:58;8.50;72.70
23231;DHT22;11784;49.818;8.632;2022-12-04T00:48:24;8.50;72.60
23231;DHT22;11784;49.818;8.632;2022-12-04T00:50:50;8.50;72.40
23231;DHT22;11784;49.818;8.632;2022-12-04T00:53:15;8.60;72.50
23231;DHT22;11784;49.818;8.632;2022-12-04T00:55:42;8.50;72.70
23231;DHT22;11784;49.818;8.632;2022-12-04T00:58:08;8.50;72.50
23231;DHT22;11784;49.818;8.632;2022-12-04T01:00:39;8.50;73.00
23231;DHT22;11784;49.818;8.632;2022-12-04T01:03:06;8.50;73.10
23231;DHT22;11784;49.818;8.632;2022-12-04T01:05:32;8.60;73.30
23231;DHT22;11784;49.818;8.632;2022-12-04T01:08:01;8.60;73.00
23231;DHT22;11784;49.818;8.632;2022-12-04T01:10:27;8.60;72.50
23231;DHT22;11784;49.818;8.632;2022-12-04T01:12:53;8.50;72.40
23231;DHT22;11784;49.818;8.632;2022-12-04T01:15:18;8.60;72.50
23231;DHT22;11784;49.818;8.632;2022-12-04T01:17:44;8.50;72.50
23231;DHT22;11784;49.818;8.632;2022-12-04T01:20:12;8.50;72.30
23231;DHT22;11784;49.818;8.632;2022-12-04T01:22:37;8.50;71.80
23231;DHT22;11784;49.818;8.632;2022-12-04T01:25:03;8.40;71.70
23231;DHT22;11784;49.818;8.632;2022-12-04T01:27:29;8.50;72.70
23231;DHT22;11784;49.818;8.632;2022-12-04T01:29:54;8.40;72.80
23231;DHT22;11784;49.818;8.632;2022-12-04T01:32:20;8.40;72.30
23231;DHT22;11784;49.818;8.632;2022-12-04T01:34:45;8.40;72.70
23231;DHT22;11784;49.818;8.632;2022-12-04T01:37:11;8.40;72.60
23231;DHT22;11784;49.818;8.632;2022-12-04T01:39:36;8.40;72.70
23231;DHT22;11784;49.818;8.632;2022-12-04T01:42:02;8.40;72.70
23231;DHT22;11784;49.818;8.632;2022-12-04T01:44:29;8.50;72.90
23231;DHT22;11784;49.818;8.632;2022-12-04T01:46:57;8.50;72.90
23231;DHT22;11784;49.818;8.632;2022-12-04T01:49:44;8.50;72.90
23231;DHT22;11784;49.818;8.632;2022-12-04T01:52:18;8.50;72.70
23231;DHT22;11784;49.818;8.632;2022-12-04T01:54:58;8.50;72.90
23231;DHT22;11784;49.818;8.632;2022-12-04T01:57:27;8.50;72.90
23231;DHT22;11784;49.818;8.632;2022-12-04T02:00:10;8.50;73.30
23231;DHT22;11784;49.818;8.632;2022-12-04T02:02:39;8.50;72.60
23231;DHT22;11784;49.818;8.632;2022-12-04T02:05:08;8.50;72.60
23231;DHT22;11784;49.818;8.632;2022-12-04T02:07:35;8.50;72.50
23231;DHT22;11784;49.818;8.632;2022-12-04T02:10:01;8.50;72.50
23231;DHT22;11784;49.818;8.632;2022-12-04T02:12:32;8.50;72.30
23231;DHT22;11784;49.818;8.632;2022-12-04T02:15:22;8.50;72.50
23231;DHT22;11784;49.818;8.632;2022-12-04T02:18:37;8.50;73.10
23231;DHT22;11784;49.818;8.632;2022-12-04T02:23:41;8.50;72.50
23231;DHT22;11784;49.818;8.632;2022-12-04T02:31:37;8.50;73.00
23231;DHT22;11784;49.818;8.632;2022-12-04T02:34:08;8.50;73.00
23231;DHT22;11784;49.818;8.632;2022-12-04T02:36:48;8.50;73.10
23231;DHT22;11784;49.818;8.632;2022-12-04T02:39:24;8.50;73.30
23231;DHT22;11784;49.818;8.632;2022-12-04T02:42:00;8.50;73.30
23231;DHT22;11784;49.818;8.632;2022-12-04T02:44:36;8.50;73.20
23231;DHT22;11784;49.818;8.632;2022-12-04T02:47:08;8.60;73.40
23231;DHT22;11784;49.818;8.632;2022-12-04T02:49:46;8.60;73.00
23231;DHT22;11784;49.818;8.632;2022-12-04T02:52:17;8.60;73.10
23231;DHT22;11784;49.818;8.632;2022-12-04T02:54:49;8.60;72.90
23231;DHT22;11784;49.818;8.632;2022-12-04T02:57:24;8.60;73.00
23231;DHT22;11784;49.818;8.632;2022-12-04T02:59:52;8.60;72.80
23231;DHT22;11784;49.818;8.632;2022-12-04T03:02:28;8.60;72.80
23231;DHT22;11784;49.818;8.632;2022-12-04T03:04:58;8.60;72.60
23231;DHT22;11784;49.818;8.632;2022-12-04T03:07:51;8.60;72.50
23231;DHT22;11784;49.818;8.632;2022-12-04T03:10:19;8.60;72.90
23231;DHT22;11784;49.818;8.632;2022-12-04T03:12:53;8.60;72.90
23231;DHT22;11784;49.818;8.632;2022-12-04T03:15:30;8.60;72.70
23231;DHT22;11784;49.818;8.632;2022-12-04T03:18:32;8.50;72.60
23231;DHT22;11784;49.818;8.632;2022-12-04T03:20:54;8.50;72.90
23231;DHT22;11784;49.818;8.632;2022-12-04T03:23:27;8.60;72.70
23231;DHT22;11784;49.818;8.632;2022-12-04T03:26:11;8.50;73.30
23231;DHT22;11784;49.818;8.632;2022-12-04T03:31:37;8.50;73.30
23231;DHT22;11784;49.818;8.632;2022-12-04T03:34:05;8.60;73.10
23231;DHT22;11784;49.818;8.632;2022-12-04T03:36:51;8.50;73.30
23231;DHT22;11784;49.818;8.632;2022-12-04T03:39:25;8.50;73.30
23231;DHT22;11784;49.818;8.632;2022-12-04T03:42:13;8.50;73.20
23231;DHT22;11784;49.818;8.632;2022-12-04T03:45:43;8.50;73.60
23231;DHT22;11784;49.818;8.632;2022-12-04T03:47:41;8.50;73.30
23231;DHT22;11784;49.818;8.632;2022-12-04T03:50:14;8.50;73.30
23231;DHT22;11784;49.818;8.632;2022-12-04T03:52:43;8.50;73.30
23231;DHT22;11784;49.818;8.632;2022-12-04T03:55:25;8.50;73.70
23231;DHT22;11784;49.818;8.632;2022-12-04T03:57:55;8.50;74.60
23231;DHT22;11784;49.818;8.632;2022-12-04T04:00:23;8.50;73.70
23231;DHT22;11784;49.818;8.632;2022-12-04T04:03:05;8.60;73.90
23231;DHT22;11784;49.818;8.632;2022-12-04T04:05:32;8.60;73.70
23231;DHT22;11784;49.818;8.632;2022-12-04T04:08:04;8.60;73.80
23231;DHT22;11784;49.818;8.632;2022-12-04T04:10:49;8.60;73.90
23231;DHT22;11784;49.818;8.632;2022-12-04T04:13:21;8.60;73.80
23231;DHT22;11784;49.818;8.632;2022-12-04T04:16:06;8.60;73.80
23231;DHT22;11784;49.818;8.632;2022-12-04T04:18:53;8.60;73.80
23231;DHT22;11784;49.818;8.632;2022-12-04T04:21:38;8.60;73.70
23231;DHT22;11784;49.818;8.632;2022-12-04T04:24:37;8.60;74.10
23231;DHT22;11784;49.818;8.632;2022-12-04T04:27:03;8.60;73.90
23231;DHT22;11784;49.818;8.632;2022-12-04T04:29:29;8.60;74.00
23231;DHT22;11784;49.818;8.632;2022-12-04T04:32:14;8.60;73.80
23231;DHT22;11784;49.818;8.632;2022-12-04T04:34:48;8.70;73.80
23231;DHT22;11784;49.818;8.632;2022-12-04T04:37:44;8.60;73.50
23231;DHT22;11784;49.818;8.632;2022-12-04T04:40:26;8.60;73.50
23231;DHT22;11784;49.818;8.632;2022-12-04T04:43:17;8.60;73.60
23231;DHT22;11784;49.818;8.632;2022-12-04T04:46:05;8.60;73.60
23231;DHT22;11784;49.818;8.632;2022-12-04T04:48:35;8.60;73.40
23231;DHT22;11784;49.818;8.632;2022-12-04T04:51:02;8.70;73.80
23231;DHT22;11784;49.818;8.632;2022-12-04T04:53:34;8.60;74.10
23231;DHT22;11784;49.818;8.632;2022-12-04T04:56:01;8.60;74.10
23231;DHT22;11784;49.818;8.632;2022-12-04T04:58:28;8.60;74.10
23231;DHT22;11784;49.818;8.632;2022-12-04T05:01:01;8.70;73.90
23231;DHT22;11784;49.818;8.632;2022-12-04T05:03:28;8.60;74.10
23231;DHT22;11784;49.818;8.632;2022-12-04T05:05:53;8.60;74.10
23231;DHT22;11784;49.818;8.632;2022-12-04T05:08:19;8.70;74.10
23231;DHT22;11784;49.818;8.632;2022-12-04T05:10:45;8.70;74.10
23231;DHT22;11784;49.818;8.632;2022-12-04T05:13:11;8.70;73.90
23231;DHT22;11784;49.818;8.632;2022-12-04T05:15:39;8.70;74.20
23231;DHT22;11784;49.818;8.632;2022-12-04T05:18:04;8.70;74.20
23231;DHT22;11784;49.818;8.632;2022-12-04T05:20:30;8.70;74.10
23231;DHT22;11784;49.818;8.632;2022-12-04T05:22:56;8.70;74.10
23231;DHT22;11784;49.818;8.632;2022-12-04T05:25:22;8.70;74.20
23231;DHT22;11784;49.818;8.632;2022-12-04T05:27:48;8.70;74.30
23231;DHT22;11784;49.818;8.632;2022-12-04T05:30:13;8.70;74.10
23231;DHT22;11784;49.818;8.632;2022-12-04T05:32:39;8.70;74.20
23231;DHT22;11784;49.818;8.632;2022-12-04T05:35:05;8.80;74.00
23231;DHT22;11784;49.818;8.632;2022-12-04T05:37:34;8.70;73.60
23231;DHT22;11784;49.818;8.632;2022-12-04T05:40:00;8.70;74.00
23231;DHT22;11784;49.818;8.632;2022-12-04T05:42:25;8.70;74.30
23231;DHT22;11784;49.818;8.632;2022-12-04T05:44:51;8.70;74.30
23231;DHT22;11784;49.818;8.632;2022-12-04T05:47:16;8.70;74.10
23231;DHT22;11784;49.818;8.632;2022-12-04T05:49:42;8.70;74.10
23231;DHT22;11784;49.818;8.632;2022-12-04T05:52:07;8.70;74.20
23231;DHT22;11784;49.818;8.632;2022-12-04T05:54:34;8.70;74.10
23231;DHT22;11784;49.818;8.632;2022-12-04T05:57:00;8.70;74.20
23231;DHT22;11784;49.818;8.632;2022-12-04T05:59:26;8.70;74.10
23231;DHT22;11784;49.818;8.632;2022-12-04T06:01:51;8.70;74.30
23231;DHT22;11784;49.818;8.632;2022-12-04T06:04:17;8.70;74.30
23231;DHT22;11784;49.818;8.632;2022-12-04T06:06:42;8.70;74.40
23231;DHT22;11784;49.818;8.632;2022-12-04T06:09:09;8.70;74.20
23231;DHT22;11784;49.818;8.632;2022-12-04T06:11:36;8.70;74.30
23231;DHT22;11784;49.818;8.632;2022-12-04T06:14:04;8.70;74.50
23231;DHT22;11784;49.818;8.632;2022-12-04T06:16:33;8.70;74.50
23231;DHT22;11784;49.818;8.632;2022-12-04T06:19:05;8.70;74.20
23231;DHT22;11784;49.818;8.632;2022-12-04T06:21:35;8.70;74.50
23231;DHT22;11784;49.818;8.632;2022-12-04T06:24:00;8.70;74.80
23231;DHT22;11784;49.818;8.632;2022-12-04T06:26:27;8.70;74.70
23231;DHT22;11784;49.818;8.632;2022-12-04T06:28:53;8.70;74.60
23231;DHT22;11784;49.818;8.632;2022-12-04T06:31:20;8.70;74.70
23231;DHT22;11784;49.818;8.632;2022-12-04T06:33:46;8.70;74.80
23231;DHT22;11784;49.818;8.632;2022-12-04T06:36:14;8.70;74.90
23231;DHT22;11784;49.818;8.632;2022-12-04T06:38:41;8.70;74.80
23231;DHT22;11784;49.818;8.632;2022-12-04T06:41:09;8.70;74.80
23231;DHT22;11784;49.818;8.632;2022-12-04T06:43:35;8.70;74.70
23231;DHT22;11784;49.818;8.632;2022-12-04T06:46:12;8.70;74.90
23231;DHT22;11784;49.818;8.632;2022-12-04T06:48:38;8.70;74.90
23231;DHT22;11784;49.818;8.632;2022-12-04T06:51:13;8.70;74.90
23231;DHT22;11784;49.818;8.632;2022-12-04T06:53:39;8.70;74.90
23231;DHT22;11784;49.818;8.632;2022-12-04T06:56:07;8.70;75.00
23231;DHT22;11784;49.818;8.632;2022-12-04T06:58:34;8.70;75.10
23231;DHT22;11784;49.818;8.632;2022-12-04T07:01:08;8.70;75.10
23231;DHT22;11784;49.818;8.632;2022-12-04T07:03:34;8.70;75.00
23231;DHT22;11784;49.818;8.632;2022-12-04T07:08:40;8.70;75.30
23231;DHT22;11784;49.818;8.632;2022-12-04T07:11:06;8.70;75.20
23231;DHT22;11784;49.818;8.632;2022-12-04T07:13:32;8.70;75.50
23231;DHT22;11784;49.818;8.632;2022-12-04T07:16:02;8.70;75.50
23231;DHT22;11784;49.818;8.632;2022-12-04T07:18:29;8.70;75.40
23231;DHT22;11784;49.818;8.632;2022-12-04T07:20:55;8.70;75.60
23231;DHT22;11784;49.818;8.632;2022-12-04T07:23:21;8.70;75.60
23231;DHT22;11784;49.818;8.632;2022-12-04T07:25:46;8.70;75.60
23231;DHT22;11784;49.818;8.632;2022-12-04T07:28:12;8.70;75.60
23231;DHT22;11784;49.818;8.632;2022-12-04T07:30:37;8.70;75.60
23231;DHT22;11784;49.818;8.632;2022-12-04T07:33:03;8.70;75.80
23231;DHT22;11784;49.818;8.632;2022-12-04T07:35:29;8.70;75.80
23231;DHT22;11784;49.818;8.632;2022-12-04T07:37:54;8.70;75.80
23231;DHT22;11784;49.818;8.632;2022-12-04T07:40:20;8.70;75.70
23231;DHT22;11784;49.818;8.632;2022-12-04T07:42:45;8.70;75.50
23231;DHT22;11784;49.818;8.632;2022-12-04T07:45:11;8.70;75.80
23231;DHT22;11784;49.818;8.632;2022-12-04T07:47:37;8.70;76.20
23231;DHT22;11784;49.818;8.632;2022-12-04T07:50:06;8.70;76.00
23231;DHT22;11784;49.818;8.632;2022-12-04T07:52:38;8.70;76.20
23231;DHT22;11784;49.818;8.632;2022-12-04T07:55:05;8.70;76.30
23231;DHT22;11784;49.818;8.632;2022-12-04T07:57:31;8.70;76.40
23231;DHT22;11784;49.818;8.632;2022-12-04T07:59:57;8.70;76.30
23231;DHT22;11784;49.818;8.632;2022-12-04T08:02:22;8.70;76.30
23231;DHT22;11784;49.818;8.632;2022-12-04T08:04:48;8.70;76.30
23231;DHT22;11784;49.818;8.632;2022-12-04T08:07:13;8.70;76.30
23231;DHT22;11784;49.818;8.632;2022-12-04T08:09:39;8.70;76.40
23231;DHT22;11784;49.818;8.632;2022-12-04T08:12:04;8.70;76.30
23231;DHT22;11784;49.818;8.632;2022-12-04T08:14:30;8.70;76.10
23231;DHT22;11784;49.818;8.632;2022-12-04T08:16:56;8.80;76.00
23231;DHT22;11784;49.818;8.632;2022-12-04T08:19:21;8.80;76.20
23231;DHT22;11784;49.818;8.632;2022-12-04T08:21:47;8.80;75.90
23231;DHT22;11784;49.818;8.632;2022-12-04T08:24:13;8.80;75.90
23231;DHT22;11784;49.818;8.632;2022-12-04T08:26:38;8.80;75.80
23231;DHT22;11784;49.818;8.632;2022-12-04T08:29:05;8.80;75.80
23231;DHT22;11784;49.818;8.632;2022-12-04T08:31:32;8.80;75.40
23231;DHT22;11784;49.818;8.632;2022-12-04T08:33:59;8.80;75.50
23231;DHT22;11784;49.818;8.632;2022-12-04T08:36:25;8.80;75.80
23231;DHT22;11784;49.818;8.632;2022-12-04T08:38:51;8.80;76.70
23231;DHT22;11784;49.818;8.632;2022-12-04T08:41:18;8.80;75.90
23231;DHT22;11784;49.818;8.632;2022-12-04T08:43:45;8.80;75.80
23231;DHT22;11784;49.818;8.632;2022-12-04T08:46:13;8.80;76.80
23231;DHT22;11784;49.818;8.632;2022-12-04T08:48:39;8.80;75.90
23231;DHT22;11784;49.818;8.632;2022-12-04T08:51:05;8.80;75.90
23231;DHT22;11784;49.818;8.632;2022-12-04T08:53:34;8.80;75.90
23231;DHT22;11784;49.818;8.632;2022-12-04T08:56:03;8.80;75.90
23231;DHT22;11784;49.818;8.632;2022-12-04T08:58:29;8.80;75.90
23231;DHT22;11784;49.818;8.632;2022-12-04T09:00:54;8.80;76.00
23231;DHT22;11784;49.818;8.632;2022-12-04T09:03:20;8.80;75.70
23231;DHT22;11784;49.818;8.632;2022-12-04T09:05:46;8.80;75.50
23231;DHT22;11784;49.818;8.632;2022-12-04T09:08:13;8.80;75.50
23231;DHT22;11784;49.818;8.632;2022-12-04T09:10:39;8.80;75.50
23231;DHT22;11784;49.818;8.632;2022-12-04T09:13:05;8.80;75.50
23231;DHT22;11784;49.818;8.632;2022-12-04T09:15:31;8.80;75.70
23231;DHT22;11784;49.818;8.632;2022-12-04T09:17:57;8.80;75.60
23231;DHT22;11784;49.818;8.632;2022-12-04T09:20:23;8.80;75.60
23231;DHT22;11784;49.818;8.632;2022-12-04T09:22:49;8.80;76.00
23231;DHT22;11784;49.818;8.632;2022-12-04T09:25:15;8.80;76.00
23231;DHT22;11784;49.818;8.632;2022-12-04T09:27:41;8.80;75.90
23231;DHT22;11784;49.818;8.632;2022-12-04T09:30:09;8.90;75.90
23231;DHT22;11784;49.818;8.632;2022-12-04T09:32:35;8.90;75.50
23231;DHT22;11784;49.818;8.632;2022-12-04T09:35:00;8.90;75.90
23231;DHT22;11784;49.818;8.632;2022-12-04T09:37:26;8.90;75.70
23231;DHT22;11784;49.818;8.632;2022-12-04T09:39:51;8.90;75.80
23231;DHT22;11784;49.818;8.632;2022-12-04T09:42:46;8.90;75.70
23231;DHT22;11784;49.818;8.632;2022-12-04T09:45:16;9.00;75.60
23231;DHT22;11784;49.818;8.632;2022-12-04T09:47:45;8.90;75.60
23231;DHT22;11784;49.818;8.632;2022-12-04T09:50:31;9.00;75.80
23231;DHT22;11784;49.818;8.632;2022-12-04T09:55:36;9.00;75.80
23231;DHT22;11784;49.818;8.632;2022-12-04T09:58:05;9.00;76.00
23231;DHT22;11784;49.818;8.632;2022-12-04T10:00:38;8.90;74.90
23231;DHT22;11784;49.818;8.632;2022-12-04T10:03:10;8.90;75.90
23231;DHT22;11784;49.818;8.632;2022-12-04T10:08:37;9.00;76.30
23231;DHT22;11784;49.818;8.632;2022-12-04T10:14:04;9.00;76.50
23231;DHT22;11784;49.818;8.632;2022-12-04T10:16:47;9.00;76.40
23231;DHT22;11784;49.818;8.632;2022-12-04T10:19:47;9.00;76.50
23231;DHT22;11784;49.818;8.632;2022-12-04T10:25:13;9.00;76.20
23231;DHT22;11784;49.818;8.632;2022-12-04T10:30:44;9.10;76.00
23231;DHT22;11784;49.818;8.632;2022-12-04T10:34:00;9.10;76.10
23231;DHT22;11784;49.818;8.632;2022-12-04T10:36:05;9.10;75.90
23231;DHT22;11784;49.818;8.632;2022-12-04T10:38:53;9.10;75.80
23231;DHT22;11784;49.818;8.632;2022-12-04T10:41:58;9.10;75.70
23231;DHT22;11784;49.818;8.632;2022-12-04T10:44:25;9.10;75.70
23231;DHT22;11784;49.818;8.632;2022-12-04T10:46:55;9.10;76.10
23231;DHT22;11784;49.818;8.632;2022-12-04T10:49:26;9.10;76.20
23231;DHT22;11784;49.818;8.632;2022-12-04T10:51:53;9.20;76.10
23231;DHT22;11784;49.818;8.632;2022-12-04T10:56:58;9.20;75.90
23231;DHT22;11784;49.818;8.632;2022-12-04T10:59:24;9.20;75.80
23231;DHT22;11784;49.818;8.632;2022-12-04T11:01:57;9.20;76.00
23231;DHT22;11784;49.818;8.632;2022-12-04T11:04:26;9.20;76.00
23231;DHT22;11784;49.818;8.632;2022-12-04T11:07:03;9.20;75.90
23231;DHT22;11784;49.818;8.632;2022-12-04T11:09:30;9.20;76.00
23231;DHT22;11784;49.818;8.632;2022-12-04T11:12:05;9.20;75.80
23231;DHT22;11784;49.818;8.632;2022-12-04T11:14:32;9.20;76.30
23231;DHT22;11784;49.818;8.632;2022-12-04T11:17:04;9.20;76.40
23231;DHT22;11784;49.818;8.632;2022-12-04T11:19:32;9.20;76.10
23231;DHT22;11784;49.818;8.632;2022-12-04T11:24:40;9.20;76.30
23231;DHT22;11784;49.818;8.632;2022-12-04T11:27:23;9.20;76.30
23231;DHT22;11784;49.818;8.632;2022-12-04T11:29:50;9.20;76.40
23231;DHT22;11784;49.818;8.632;2022-12-04T11:32:25;9.20;75.80
23231;DHT22;11784;49.818;8.632;2022-12-04T11:34:53;9.20;76.70
23231;DHT22;11784;49.818;8.632;2022-12-04T11:37:24;9.20;76.70
23231;DHT22;11784;49.818;8.632;2022-12-04T11:39:54;9.20;76.40
23231;DHT22;11784;49.818;8.632;2022-12-04T11:42:24;9.10;76.30
23231;DHT22;11784;49.818;8.632;2022-12-04T11:44:53;9.20;76.70
23231;DHT22;11784;49.818;8.632;2022-12-04T11:47:20;9.20;76.90
23231;DHT22;11784;49.818;8.632;2022-12-04T11:52:57;9.10;76.60
23231;DHT22;11784;49.818;8.632;2022-12-04T11:58:14;9.20;77.30
23231;DHT22;11784;49.818;8.632;2022-12-04T12:00:58;9.10;77.20
23231;DHT22;11784;49.818;8.632;2022-12-04T12:06:36;9.20;77.30
23231;DHT22;11784;49.818;8.632;2022-12-04T12:09:34;9.10;77.40
23231;DHT22;11784;49.818;8.632;2022-12-04T12:12:07;9.10;77.60
23231;DHT22;11784;49.818;8.632;2022-12-04T12:18:04;9.10;78.00
23231;DHT22;11784;49.818;8.632;2022-12-04T12:23:32;9.10;78.00
23231;DHT22;11784;49.818;8.632;2022-12-04T12:26:09;9.10;78.00
23231;DHT22;11784;49.818;8.632;2022-12-04T12:31:11;9.20;78.10
23231;DHT22;11784;49.818;8.632;2022-12-04T12:33:50;9.20;78.10
23231;DHT22;11784;49.818;8.632;2022-12-04T12:36:17;9.20;78.10
23231;DHT22;11784;49.818;8.632;2022-12-04T12:38:55;9.20;78.20
23231;DHT22;11784;49.818;8.632;2022-12-04T12:41:33;9.20;78.30
23231;DHT22;11784;49.818;8.632;2022-12-04T12:44:04;9.20;78.40
23231;DHT22;11784;49.818;8.632;2022-12-04T12:46:38;9.20;78.40
23231;DHT22;11784;49.818;8.632;2022-12-04T12:52:00;9.20;78.70
23231;DHT22;11784;49.818;8.632;2022-12-04T12:54:46;9.20;78.50
23231;DHT22;11784;49.818;8.632;2022-12-04T12:57:57;9.30;78.30
23231;DHT22;11784;49.818;8.632;2022-12-04T13:00:19;9.30;78.20
23231;DHT22;11784;49.818;8.632;2022-12-04T13:02:47;9.30;78.20
23231;DHT22;11784;49.818;8.632;2022-12-04T13:05:24;9.20;78.20
23231;DHT22;11784;49.818;8.632;2022-12-04T13:08:02;9.20;78.20
23231;DHT22;11784;49.818;8.632;2022-12-04T13:13:22;9.30;77.90
23231;DHT22;11784;49.818;8.632;2022-12-04T13:15:57;9.20;77.90
23231;DHT22;11784;49.818;8.632;2022-12-04T13:18:30;9.20;77.80
23231;DHT22;11784;49.818;8.632;2022-12-04T13:21:00;9.20;77.70
23231;DHT22;11784;49.818;8.632;2022-12-04T13:23:57;9.30;78.00
23231;DHT22;11784;49.818;8.632;2022-12-04T13:26:35;9.30;78.00
23231;DHT22;11784;49.818;8.632;2022-12-04T13:32:32;9.30;77.70
23231;DHT22;11784;49.818;8.632;2022-12-04T13:41:33;9.20;77.60
23231;DHT22;11784;49.818;8.632;2022-12-04T13:43:59;9.20;77.20
23231;DHT22;11784;49.818;8.632;2022-12-04T13:46:38;9.20;77.00
23231;DHT22;11784;49.818;8.632;2022-12-04T13:51:35;9.20;77.20
23231;DHT22;11784;49.818;8.632;2022-12-04T13:54:28;9.20;77.10
23231;DHT22;11784;49.818;8.632;2022-12-04T13:59:39;9.20;76.80
23231;DHT22;11784;49.818;8.632;2022-12-04T14:02:27;9.20;77.00
23231;DHT22;11784;49.818;8.632;2022-12-04T14:05:05;9.20;76.80
23231;DHT22;11784;49.818;8.632;2022-12-04T14:07:34;9.20;76.40
23231;DHT22;11784;49.818;8.632;2022-12-04T14:12:37;9.20;76.70
23231;DHT22;11784;49.818;8.632;2022-12-04T14:17:34;9.20;76.70
23231;DHT22;11784;49.818;8.632;2022-12-04T14:20:23;9.30;76.60
23231;DHT22;11784;49.818;8.632;2022-12-04T14:22:48;9.30;76.50
23231;DHT22;11784;49.818;8.632;2022-12-04T14:27:44;9.30;76.50
23231;DHT22;11784;49.818;8.632;2022-12-04T14:30:23;9.30;76.50
23231;DHT22;11784;49.818;8.632;2022-12-04T14:32:52;9.30;76.50
23231;DHT22;11784;49.818;8.632;2022-12-04T14:35:24;9.20;76.20
23231;DHT22;11784;49.818;8.632;2022-12-04T14:38:02;9.20;76.10
23231;DHT22;11784;49.818;8.632;2022-12-04T14:40:41;9.20;76.10
23231;DHT22;11784;49.818;8.632;2022-12-04T14:43:17;9.20;75.80
23231;DHT22;11784;49.818;8.632;2022-12-04T14:45:48;9.20;76.10
23231;DHT22;11784;49.818;8.632;2022-12-04T14:48:22;9.20;76.20
23231;DHT22;11784;49.818;8.632;2022-12-04T14:53:44;9.20;76.50
23231;DHT22;11784;49.818;8.632;2022-12-04T14:59:05;9.20;76.20
23231;DHT22;11784;49.818;8.632;2022-12-04T15:01:36;9.20;76.10
23231;DHT22;11784;49.818;8.632;2022-12-04T15:04:26;9.20;76.10
23231;DHT22;11784;49.818;8.632;2022-12-04T15:06:53;9.20;76.50
23231;DHT22;11784;49.818;8.632;2022-12-04T15:09:21;9.20;76.70
23231;DHT22;11784;49.818;8.632;2022-12-04T15:12:20;9.20;76.80
23231;DHT22;11784;49.818;8.632;2022-12-04T15:15:18;9.10;76.80
23231;DHT22;11784;49.818;8.632;2022-12-04T15:17:56;9.10;76.80
23231;DHT22;11784;49.818;8.632;2022-12-04T15:20:22;9.10;76.70
23231;DHT22;11784;49.818;8.632;2022-12-04T15:22:49;9.10;76.80
23231;DHT22;11784;49.818;8.632;2022-12-04T15:25:24;9.10;76.80
23231;DHT22;11784;49.818;8.632;2022-12-04T15:27:53;9.10;77.20
23231;DHT22;11784;49.818;8.632;2022-12-04T15:30:22;9.10;77.20
23231;DHT22;11784;49.818;8.632;2022-12-04T15:32:51;9.10;77.50
23231;DHT22;11784;49.818;8.632;2022-12-04T15:35:29;9.10;77.40
23231;DHT22;11784;49.818;8.632;2022-12-04T15:37:56;9.10;77.20
23231;DHT22;11784;49.818;8.632;2022-12-04T15:40:25;9.10;77.00
23231;DHT22;11784;49.818;8.632;2022-12-04T15:42:51;9.10;77.00
23231;DHT22;11784;49.818;8.632;2022-12-04T15:50:23;9.10;77.00
23231;DHT22;11784;49.818;8.632;2022-12-04T15:53:07;9.10;76.70
23231;DHT22;11784;49.818;8.632;2022-12-04T15:55:53;9.10;76.60
23231;DHT22;11784;49.818;8.632;2022-12-04T15:58:24;9.10;76.60
23231;DHT22;11784;49.818;8.632;2022-12-04T16:00:58;9.10;76.40
23231;DHT22;11784;49.818;8.632;2022-12-04T16:03:30;9.10;76.80
23231;DHT22;11784;49.818;8.632;2022-12-04T16:06:19;9.00;77.00
23231;DHT22;11784;49.818;8.632;2022-12-04T16:08:56;9.00;76.90
23231;DHT22;11784;49.818;8.632;2022-12-04T16:11:27;9.00;77.00
23231;DHT22;11784;49.818;8.632;2022-12-04T16:16:39;9.00;76.90
23231;DHT22;11784;49.818;8.632;2022-12-04T16:19:15;9.00;76.90
23231;DHT22;11784;49.818;8.632;2022-12-04T16:21:42;9.00;76.90
23231;DHT22;11784;49.818;8.632;2022-12-04T16:24:10;9.00;76.70
23231;DHT22;11784;49.818;8.632;2022-12-04T16:26:37;9.00;76.70
23231;DHT22;11784;49.818;8.632;2022-12-04T16:29:02;9.10;76.80
23231;DHT22;11784;49.818;8.632;2022-12-04T16:31:28;9.00;76.70
23231;DHT22;11784;49.818;8.632;2022-12-04T16:33:54;9.00;76.70
23231;DHT22;11784;49.818;8.632;2022-12-04T16:36:19;9.00;76.60
23231;DHT22;11784;49.818;8.632;2022-12-04T16:38:45;9.00;76.40
23231;DHT22;11784;49.818;8.632;2022-12-04T16:41:15;9.00;76.70
23231;DHT22;11784;49.818;8.632;2022-12-04T16:43:41;9.00;76.60
23231;DHT22;11784;49.818;8.632;2022-12-04T16:46:13;9.00;76.70
23231;DHT22;11784;49.818;8.632;2022-12-04T16:48:42;9.10;76.70
23231;DHT22;11784;49.818;8.632;2022-12-04T16:51:14;9.00;76.60
23231;DHT22;11784;49.818;8.632;2022-12-04T16:53:40;9.00;77.20
23231;DHT22;11784;49.818;8.632;2022-12-04T16:56:07;9.10;77.00
23231;DHT22;11784;49.818;8.632;2022-12-04T16:58:33;9.00;77.60
23231;DHT22;11784;49.818;8.632;2022-12-04T17:00:58;9.00;77.20
23231;DHT22;11784;49.818;8.632;2022-12-04T17:03:29;9.00;77.60
23231;DHT22;11784;49.818;8.632;2022-12-04T17:05:56;9.10;77.70
23231;DHT22;11784;49.818;8.632;2022-12-04T17:08:22;9.10;77.80
23231;DHT22;11784;49.818;8.632;2022-12-04T17:10:48;9.00;78.10
23231;DHT22;11784;49.818;8.632;2022-12-04T17:13:17;9.00;78.30
23231;DHT22;11784;49.818;8.632;2022-12-04T17:15:42;9.00;78.50
23231;DHT22;11784;49.818;8.632;2022-12-04T17:18:08;9.10;78.80
23231;DHT22;11784;49.818;8.632;2022-12-04T17:20:34;9.00;79.00
23231;DHT22;11784;49.818;8.632;2022-12-04T17:22:59;9.00;79.00
23231;DHT22;11784;49.818;8.632;2022-12-04T17:25:25;9.00;79.10
23231;DHT22;11784;49.818;8.632;2022-12-04T17:27:50;9.00;78.70
23231;DHT22;11784;49.818;8.632;2022-12-04T17:30:16;9.00;78.90
23231;DHT22;11784;49.818;8.632;2022-12-04T17:32:42;9.00;79.00
23231;DHT22;11784;49.818;8.632;2022-12-04T17:35:09;9.00;79.30
23231;DHT22;11784;49.818;8.632;2022-12-04T17:37:36;9.00;79.40
23231;DHT22;11784;49.818;8.632;2022-12-04T17:40:04;9.00;79.50
23231;DHT22;11784;49.818;8.632;2022-12-04T17:42:31;9.00;79.40